Atlantic Merida — 9V9008 — position and weather

sailwx.info

Track history (hours):
 
Tides and Currents Weather Stations Pressure Air Temp Water Temp Dewpoint Dewpoint Depression Visibility Wind Speed Wind Dir Waves Ship Positions

Atlantic Merida

Last reported at 2018-Jan-09 17:46 UTC. Time now 2018-Jan-20 02:51 UTC.
Position N 09°11' W 079°52'.
Warning: this ship's position is 10 days out of date.

Length 190 m; draft 12 m.

Type: Cargo ship. MMSI: 566349000.

Date/timePositionNaut miles runAvg speedWind from/ knotsBaromVisibWave heightAir tempDewpointWater temp
2018-Jan-09 17:46N 09°11' W 079°52'4 9.1
2018-Jan-09 17:21N 09°13' W 079°55'2 7.2
2018-Jan-09 17:00N 09°15' W 079°55'1 2.3
2018-Jan-09 16:30N 09°16' W 079°55'0 0.3
2018-Jan-09 15:57N 09°16' W 079°55'0 0.4
2018-Jan-09 15:29N 09°17' W 079°55'0 0.5
2018-Jan-09 15:00N 09°17' W 079°55'0 0.8
2018-Jan-09 14:29N 09°17' W 079°55'2 3.5
2018-Jan-09 14:00N 09°19' W 079°55'3 5.1
2018-Jan-09 13:30N 09°22' W 079°55'3 6.0
2018-Jan-09 13:00N 09°25' W 079°55'4 7.9
2018-Jan-09 12:31N 09°28' W 079°56'0 0.4
2018-Jan-09 11:56N 09°28' W 079°56'0 0.1
2018-Jan-09 11:29N 09°28' W 079°56'0 0.1
2018-Jan-09 10:56N 09°28' W 079°56'0 0.1
2018-Jan-09 10:26N 09°28' W 079°56'0 0.0
2018-Jan-09 09:56N 09°28' W 079°56'0 0.0
2018-Jan-09 09:29N 09°28' W 079°56'0 0.0
2018-Jan-09 08:59N 09°28' W 079°56'0 0.1
2018-Jan-09 08:29N 09°28' W 079°56'0 0.0
2018-Jan-09 07:59N 09°28' W 079°56'0 0.0
2018-Jan-09 07:26N 09°28' W 079°56'0 0.0
2018-Jan-09 06:59N 09°28' W 079°56'0 0.0
2018-Jan-09 06:26N 09°28' W 079°56'0 0.0
2018-Jan-09 05:59N 09°28' W 079°56'0 0.0
2018-Jan-09 05:23N 09°28' W 079°56'0 0.0
2018-Jan-09 04:56N 09°28' W 079°56'0 0.1
2018-Jan-09 04:29N 09°28' W 079°56'0 0.1
2018-Jan-09 03:56N 09°28' W 079°56'0 0.0
2018-Jan-09 03:26N 09°28' W 079°56'0 0.1
2018-Jan-09 02:59N 09°28' W 079°56'0 0.0
2018-Jan-09 02:29N 09°28' W 079°56'0 0.0
2018-Jan-09 01:59N 09°28' W 079°56'0 0.0
2018-Jan-09 01:29N 09°28' W 079°56'0 0.0
2018-Jan-09 00:59N 09°28' W 079°56'0 0.0
2018-Jan-09 00:29N 09°28' W 079°56'0 0.0
2018-Jan-08 23:59N 09°28' W 079°56'0 0.0
2018-Jan-08 23:29N 09°28' W 079°56'0 0.1
2018-Jan-08 22:59N 09°28' W 079°56'0 0.0
2018-Jan-08 22:29N 09°28' W 079°56'0 0.0
2018-Jan-08 21:59N 09°28' W 079°56'0 0.1
2018-Jan-08 21:29N 09°28' W 079°56'0 0.0
2018-Jan-08 20:59N 09°28' W 079°56'0 0.0
2018-Jan-08 20:29N 09°28' W 079°56'0 0.0
2018-Jan-08 19:59N 09°28' W 079°56'0 0.1
2018-Jan-08 19:29N 09°28' W 079°56'0 0.0
2018-Jan-08 18:59N 09°28' W 079°56'0 0.0
2018-Jan-08 18:23N 09°28' W 079°56'0 0.1
2018-Jan-08 17:59N 09°28' W 079°56'0 0.0
2018-Jan-08 17:29N 09°28' W 079°56'0 0.0
2018-Jan-08 16:59N 09°28' W 079°56'0 0.0
2018-Jan-08 16:20N 09°28' W 079°56'0 0.0
2018-Jan-08 15:59N 09°28' W 079°56'0 0.1
2018-Jan-08 15:29N 09°28' W 079°56'0 0.1
2018-Jan-08 14:59N 09°28' W 079°56'0 0.0
2018-Jan-08 12:53N 09°28' W 079°56'0 0.1
2018-Jan-08 12:26N 09°28' W 079°56'0 0.1
2018-Jan-08 11:59N 09°28' W 079°56'0 0.1
2018-Jan-08 11:23N 09°28' W 079°56'0 0.2
2018-Jan-08 10:59N 09°28' W 079°56'0 0.0
2018-Jan-08 10:29N 09°28' W 079°56'0 0.0
2018-Jan-08 09:56N 09°28' W 079°56'0 0.1
2018-Jan-08 09:29N 09°28' W 079°56'0 0.0
2018-Jan-08 08:59N 09°28' W 079°56'0 0.0
2018-Jan-08 08:26N 09°28' W 079°56'0 0.0
2018-Jan-08 07:53N 09°28' W 079°56'0 0.0
2018-Jan-08 07:29N 09°28' W 079°56'0 0.0
2018-Jan-08 06:59N 09°28' W 079°56'0 0.0
2018-Jan-08 06:29N 09°28' W 079°56'0 0.0
2018-Jan-08 05:56N 09°28' W 079°56'0 0.1
2018-Jan-08 05:23N 09°28' W 079°56'0 0.0
2018-Jan-08 04:50N 09°28' W 079°56'0 0.1
2018-Jan-08 04:26N 09°28' W 079°56'0 0.0
2018-Jan-08 03:59N 09°28' W 079°56'0 0.0
2018-Jan-08 03:05N 09°28' W 079°56'0 0.0
2018-Jan-08 02:56N 09°28' W 079°56'0 0.0
2018-Jan-08 02:29N 09°28' W 079°56'0 0.0
2018-Jan-08 01:56N 09°28' W 079°56'0 0.0
2018-Jan-08 01:29N 09°28' W 079°56'0 0.0
2018-Jan-08 00:53N 09°28' W 079°56'0 0.0
2018-Jan-08 00:29N 09°28' W 079°56'0 0.0
2018-Jan-07 23:59N 09°28' W 079°56'0 0.0
2018-Jan-07 21:47N 09°28' W 079°56'0 0.0
2018-Jan-07 21:11N 09°28' W 079°56'0 0.0
2018-Jan-07 17:35N 09°28' W 079°56'0 0.1
2018-Jan-07 17:29N 09°28' W 079°56'0 0.0
2018-Jan-07 16:44N 09°28' W 079°56'0 0.0
2018-Jan-07 16:23N 09°28' W 079°56'0 0.0
2018-Jan-07 15:59N 09°28' W 079°56'0 0.0
2018-Jan-07 15:26N 09°28' W 079°56'0 0.0
2018-Jan-07 14:53N 09°28' W 079°56'0 0.0
2018-Jan-07 13:26N 09°28' W 079°56'0 0.1
2018-Jan-07 12:59N 09°28' W 079°56'0 0.1
2018-Jan-07 12:29N 09°28' W 079°56'0 0.0
2018-Jan-07 11:59N 09°28' W 079°56'0 0.0
2018-Jan-07 11:29N 09°28' W 079°56'0 0.0
2018-Jan-07 10:59N 09°28' W 079°56'0 0.0
2018-Jan-07 10:29N 09°28' W 079°56'0 0.0
2018-Jan-07 09:56N 09°28' W 079°56'0 0.1
2018-Jan-07 09:29N 09°28' W 079°56'0 0.0
2018-Jan-07 08:59N 09°28' W 079°56'0 0.1
2018-Jan-07 08:29N 09°28' W 079°56'0 0.1
2018-Jan-07 07:59N 09°28' W 079°56'0 0.1
2018-Jan-07 07:29N 09°28' W 079°56'0 0.1
2018-Jan-07 06:59N 09°28' W 079°56'0 0.0
2018-Jan-07 06:29N 09°28' W 079°56'0 0.0
2018-Jan-07 05:56N 09°28' W 079°56'0 0.0
2018-Jan-07 05:29N 09°28' W 079°56'0 0.0
2018-Jan-07 04:59N 09°28' W 079°56'0 0.0
2018-Jan-07 04:29N 09°28' W 079°56'0 0.1
2018-Jan-07 03:59N 09°28' W 079°56'0 0.0
2018-Jan-07 03:29N 09°28' W 079°56'0 0.1
2018-Jan-07 02:59N 09°28' W 079°56'0 0.0
2018-Jan-07 02:29N 09°28' W 079°56'0 0.1
2018-Jan-07 01:59N 09°28' W 079°56'0 0.0
2018-Jan-07 01:29N 09°28' W 079°56'0 0.0
2018-Jan-07 00:29N 09°28' W 079°56'0 0.1
2018-Jan-06 23:59N 09°28' W 079°56'0 0.0
2018-Jan-06 22:38N 09°28' W 079°56'0 0.2
2018-Jan-06 22:29N 09°28' W 079°56'0 0.0
2018-Jan-06 21:53N 09°28' W 079°56'0 0.0
2018-Jan-06 21:29N 09°28' W 079°56'0 0.1
2018-Jan-06 20:53N 09°28' W 079°56'0 0.0
2018-Jan-06 20:29N 09°28' W 079°56'0 0.1
2018-Jan-06 20:01N 09°28' W 079°56'2 3.4
2018-Jan-06 19:25N 09°30' W 079°55'2 4.5
2018-Jan-06 19:00N 09°31' W 079°54'  
Track history (hours):
 
Tides and Currents Weather Stations Pressure Air Temp Water Temp Dewpoint Dewpoint Depression Visibility Wind Speed Wind Dir Waves Ship Positions

Atlantic Merida

Last reported at 2018-Jan-09 17:46 UTC. Time now 2018-Jan-20 02:51 UTC.
Position N 09°11' W 079°52'.
Warning: this ship's position is 10 days out of date.

Length 190 m; draft 12 m.

Type: Cargo ship. MMSI: 566349000.

Date/timePositionNaut miles runAvg speedWind from/ knotsBaromVisibWave heightAir tempDewpointWater temp
2018-Jan-09 17:46N 09°11' W 079°52'4 9.1
2018-Jan-09 17:21N 09°13' W 079°55'2 7.2
2018-Jan-09 17:00N 09°15' W 079°55'1 2.3
2018-Jan-09 16:30N 09°16' W 079°55'0 0.3
2018-Jan-09 15:57N 09°16' W 079°55'0 0.4
2018-Jan-09 15:29N 09°17' W 079°55'0 0.5
2018-Jan-09 15:00N 09°17' W 079°55'0 0.8
2018-Jan-09 14:29N 09°17' W 079°55'2 3.5
2018-Jan-09 14:00N 09°19' W 079°55'3 5.1
2018-Jan-09 13:30N 09°22' W 079°55'3 6.0
2018-Jan-09 13:00N 09°25' W 079°55'4 7.9
2018-Jan-09 12:31N 09°28' W 079°56'0 0.4
2018-Jan-09 11:56N 09°28' W 079°56'0 0.1
2018-Jan-09 11:29N 09°28' W 079°56'0 0.1
2018-Jan-09 10:56N 09°28' W 079°56'0 0.1
2018-Jan-09 10:26N 09°28' W 079°56'0 0.0
2018-Jan-09 09:56N 09°28' W 079°56'0 0.0
2018-Jan-09 09:29N 09°28' W 079°56'0 0.0
2018-Jan-09 08:59N 09°28' W 079°56'0 0.1
2018-Jan-09 08:29N 09°28' W 079°56'0 0.0
2018-Jan-09 07:59N 09°28' W 079°56'0 0.0
2018-Jan-09 07:26N 09°28' W 079°56'0 0.0
2018-Jan-09 06:59N 09°28' W 079°56'0 0.0
2018-Jan-09 06:26N 09°28' W 079°56'0 0.0
2018-Jan-09 05:59N 09°28' W 079°56'0 0.0
2018-Jan-09 05:23N 09°28' W 079°56'0 0.0
2018-Jan-09 04:56N 09°28' W 079°56'0 0.1
2018-Jan-09 04:29N 09°28' W 079°56'0 0.1
2018-Jan-09 03:56N 09°28' W 079°56'0 0.0
2018-Jan-09 03:26N 09°28' W 079°56'0 0.1
2018-Jan-09 02:59N 09°28' W 079°56'0 0.0
2018-Jan-09 02:29N 09°28' W 079°56'0 0.0
2018-Jan-09 01:59N 09°28' W 079°56'0 0.0
2018-Jan-09 01:29N 09°28' W 079°56'0 0.0
2018-Jan-09 00:59N 09°28' W 079°56'0 0.0
2018-Jan-09 00:29N 09°28' W 079°56'0 0.0
2018-Jan-08 23:59N 09°28' W 079°56'0 0.0
2018-Jan-08 23:29N 09°28' W 079°56'0 0.1
2018-Jan-08 22:59N 09°28' W 079°56'0 0.0
2018-Jan-08 22:29N 09°28' W 079°56'0 0.0
2018-Jan-08 21:59N 09°28' W 079°56'0 0.1
2018-Jan-08 21:29N 09°28' W 079°56'0 0.0
2018-Jan-08 20:59N 09°28' W 079°56'0 0.0
2018-Jan-08 20:29N 09°28' W 079°56'0 0.0
2018-Jan-08 19:59N 09°28' W 079°56'0 0.1
2018-Jan-08 19:29N 09°28' W 079°56'0 0.0
2018-Jan-08 18:59N 09°28' W 079°56'0 0.0
2018-Jan-08 18:23N 09°28' W 079°56'0 0.1
2018-Jan-08 17:59N 09°28' W 079°56'0 0.0
2018-Jan-08 17:29N 09°28' W 079°56'0 0.0
2018-Jan-08 16:59N 09°28' W 079°56'0 0.0
2018-Jan-08 16:20N 09°28' W 079°56'0 0.0
2018-Jan-08 15:59N 09°28' W 079°56'0 0.1
2018-Jan-08 15:29N 09°28' W 079°56'0 0.1
2018-Jan-08 14:59N 09°28' W 079°56'0 0.0
2018-Jan-08 12:53N 09°28' W 079°56'0 0.1
2018-Jan-08 12:26N 09°28' W 079°56'0 0.1
2018-Jan-08 11:59N 09°28' W 079°56'0 0.1
2018-Jan-08 11:23N 09°28' W 079°56'0 0.2
2018-Jan-08 10:59N 09°28' W 079°56'0 0.0
2018-Jan-08 10:29N 09°28' W 079°56'0 0.0
2018-Jan-08 09:56N 09°28' W 079°56'0 0.1
2018-Jan-08 09:29N 09°28' W 079°56'0 0.0
2018-Jan-08 08:59N 09°28' W 079°56'0 0.0
2018-Jan-08 08:26N 09°28' W 079°56'0 0.0
2018-Jan-08 07:53N 09°28' W 079°56'0 0.0
2018-Jan-08 07:29N 09°28' W 079°56'0 0.0
2018-Jan-08 06:59N 09°28' W 079°56'0 0.0
2018-Jan-08 06:29N 09°28' W 079°56'0 0.0
2018-Jan-08 05:56N 09°28' W 079°56'0 0.1
2018-Jan-08 05:23N 09°28' W 079°56'0 0.0
2018-Jan-08 04:50N 09°28' W 079°56'0 0.1
2018-Jan-08 04:26N 09°28' W 079°56'0 0.0
2018-Jan-08 03:59N 09°28' W 079°56'0 0.0
2018-Jan-08 03:05N 09°28' W 079°56'0 0.0
2018-Jan-08 02:56N 09°28' W 079°56'0 0.0
2018-Jan-08 02:29N 09°28' W 079°56'0 0.0
2018-Jan-08 01:56N 09°28' W 079°56'0 0.0
2018-Jan-08 01:29N 09°28' W 079°56'0 0.0
2018-Jan-08 00:53N 09°28' W 079°56'0 0.0
2018-Jan-08 00:29N 09°28' W 079°56'0 0.0
2018-Jan-07 23:59N 09°28' W 079°56'0 0.0
2018-Jan-07 21:47N 09°28' W 079°56'0 0.0
2018-Jan-07 21:11N 09°28' W 079°56'0 0.0
2018-Jan-07 17:35N 09°28' W 079°56'0 0.1
2018-Jan-07 17:29N 09°28' W 079°56'0 0.0
2018-Jan-07 16:44N 09°28' W 079°56'0 0.0
2018-Jan-07 16:23N 09°28' W 079°56'0 0.0
2018-Jan-07 15:59N 09°28' W 079°56'0 0.0
2018-Jan-07 15:26N 09°28' W 079°56'0 0.0
2018-Jan-07 14:53N 09°28' W 079°56'0 0.0
2018-Jan-07 13:26N 09°28' W 079°56'0 0.1
2018-Jan-07 12:59N 09°28' W 079°56'0 0.1
2018-Jan-07 12:29N 09°28' W 079°56'0 0.0
2018-Jan-07 11:59N 09°28' W 079°56'0 0.0
2018-Jan-07 11:29N 09°28' W 079°56'0 0.0
2018-Jan-07 10:59N 09°28' W 079°56'0 0.0
2018-Jan-07 10:29N 09°28' W 079°56'0 0.0
2018-Jan-07 09:56N 09°28' W 079°56'0 0.1
2018-Jan-07 09:29N 09°28' W 079°56'0 0.0
2018-Jan-07 08:59N 09°28' W 079°56'0 0.1
2018-Jan-07 08:29N 09°28' W 079°56'0 0.1
2018-Jan-07 07:59N 09°28' W 079°56'0 0.1
2018-Jan-07 07:29N 09°28' W 079°56'0 0.1
2018-Jan-07 06:59N 09°28' W 079°56'0 0.0
2018-Jan-07 06:29N 09°28' W 079°56'0 0.0
2018-Jan-07 05:56N 09°28' W 079°56'0 0.0
2018-Jan-07 05:29N 09°28' W 079°56'0 0.0
2018-Jan-07 04:59N 09°28' W 079°56'0 0.0
2018-Jan-07 04:29N 09°28' W 079°56'0 0.1
2018-Jan-07 03:59N 09°28' W 079°56'0 0.0
2018-Jan-07 03:29N 09°28' W 079°56'0 0.1
2018-Jan-07 02:59N 09°28' W 079°56'0 0.0
2018-Jan-07 02:29N 09°28' W 079°56'0 0.1
2018-Jan-07 01:59N 09°28' W 079°56'0 0.0
2018-Jan-07 01:29N 09°28' W 079°56'0 0.0
2018-Jan-07 00:29N 09°28' W 079°56'0 0.1
2018-Jan-06 23:59N 09°28' W 079°56'0 0.0
2018-Jan-06 22:38N 09°28' W 079°56'0 0.2
2018-Jan-06 22:29N 09°28' W 079°56'0 0.0
2018-Jan-06 21:53N 09°28' W 079°56'0 0.0
2018-Jan-06 21:29N 09°28' W 079°56'0 0.1
2018-Jan-06 20:53N 09°28' W 079°56'0 0.0
2018-Jan-06 20:29N 09°28' W 079°56'0 0.1
2018-Jan-06 20:01N 09°28' W 079°56'2 3.4
2018-Jan-06 19:25N 09°30' W 079°55'2 4.5
2018-Jan-06 19:00N 09°31' W 079°54'  

Dump ship's entire track history